createdAt,value
2022-11-06T00:02:59.501Z,7.80
2022-11-06T00:08:01.384Z,7.80
2022-11-06T00:13:03.701Z,7.80
2022-11-06T00:18:05.588Z,7.80
2022-11-06T00:23:07.426Z,7.80
2022-11-06T00:28:09.633Z,7.70
2022-11-06T00:33:11.637Z,7.80
2022-11-06T00:38:13.819Z,7.70
2022-11-06T00:43:16.079Z,7.80
2022-11-06T00:48:17.876Z,7.60
2022-11-06T00:53:19.708Z,7.70
2022-11-06T00:58:21.546Z,7.70
2022-11-06T01:03:23.380Z,7.70
2022-11-06T01:08:25.178Z,7.70
2022-11-06T01:13:27.006Z,7.80
2022-11-06T01:18:28.835Z,7.80
2022-11-06T01:23:30.696Z,7.80
2022-11-06T01:28:32.670Z,7.90
2022-11-06T01:33:34.486Z,7.80
2022-11-06T01:38:36.325Z,7.80
2022-11-06T01:43:51.870Z,7.80
2022-11-06T01:49:10.339Z,7.80
2022-11-06T01:54:12.995Z,7.70
2022-11-06T01:59:17.466Z,7.80
2022-11-06T02:04:32.861Z,7.80
2022-11-06T02:09:35.491Z,7.70
2022-11-06T02:15:11.351Z,7.70
2022-11-06T02:20:35.764Z,7.60
2022-11-06T02:25:46.377Z,7.50
2022-11-06T02:30:50.004Z,7.50
2022-11-06T02:35:58.870Z,7.40
2022-11-06T02:41:04.889Z,7.40
2022-11-06T02:46:11.716Z,7.40
2022-11-06T02:51:18.833Z,7.40
2022-11-06T02:56:24.974Z,7.50
2022-11-06T03:01:35.048Z,7.70
2022-11-06T03:06:41.993Z,7.50
2022-11-06T03:11:44.139Z,7.40
2022-11-06T03:16:52.559Z,7.30
2022-11-06T03:21:58.185Z,7.40
2022-11-06T03:27:07.249Z,7.50
2022-11-06T03:32:32.837Z,7.50
2022-11-06T03:37:44.201Z,7.20
2022-11-06T03:42:49.307Z,7.10
2022-11-06T03:47:58.575Z,7.00
2022-11-06T03:53:11.874Z,7.00
2022-11-06T03:58:21.797Z,7.00
2022-11-06T04:03:49.162Z,6.90
2022-11-06T04:09:11.595Z,7.00
2022-11-06T04:14:16.148Z,7.00
2022-11-06T04:19:20.525Z,7.10
2022-11-06T04:25:07.461Z,7.00
2022-11-06T04:30:15.130Z,6.80
2022-11-06T04:35:37.060Z,6.70
2022-11-06T04:40:59.749Z,6.60
2022-11-06T04:46:05.041Z,6.60
2022-11-06T04:51:10.521Z,6.60
2022-11-06T04:56:28.246Z,6.60
2022-11-06T05:01:31.960Z,6.80
2022-11-06T05:06:33.853Z,6.90
2022-11-06T05:11:35.780Z,6.80
2022-11-06T05:16:37.617Z,6.70
2022-11-06T05:21:57.993Z,6.80
2022-11-06T05:27:00.028Z,6.70
2022-11-06T05:32:01.928Z,6.60
2022-11-06T05:37:03.797Z,6.50
2022-11-06T05:42:05.640Z,6.40
2022-11-06T05:47:07.707Z,6.40
2022-11-06T05:52:09.690Z,6.50
2022-11-06T05:57:11.568Z,6.70
2022-11-06T06:02:13.554Z,6.70
2022-11-06T06:07:15.502Z,6.70
2022-11-06T06:12:17.570Z,6.70
2022-11-06T06:17:19.941Z,6.70
2022-11-06T06:22:22.508Z,6.80
2022-11-06T06:27:27.514Z,7.00
2022-11-06T06:32:29.328Z,7.00
2022-11-06T06:37:31.207Z,7.00
2022-11-06T06:42:33.229Z,7.30
2022-11-06T06:47:35.036Z,7.40
2022-11-06T06:52:37.051Z,7.50
2022-11-06T06:57:38.856Z,7.70
2022-11-06T07:02:40.693Z,7.80
2022-11-06T07:07:42.618Z,7.90
2022-11-06T07:12:44.604Z,8.20
2022-11-06T07:17:46.639Z,8.40
2022-11-06T07:22:48.455Z,8.20
2022-11-06T07:27:50.293Z,8.10
2022-11-06T07:32:52.106Z,8.10
2022-11-06T07:37:53.907Z,8.00
2022-11-06T07:42:55.749Z,8.20
2022-11-06T07:47:59.224Z,8.30
2022-11-06T07:53:03.303Z,8.10
2022-11-06T07:58:05.159Z,8.40
2022-11-06T08:03:06.983Z,8.80
2022-11-06T08:08:09.409Z,8.80
2022-11-06T08:13:12.470Z,9.00
2022-11-06T08:18:14.883Z,9.00
2022-11-06T08:23:16.901Z,9.00
2022-11-06T08:28:18.729Z,8.70
2022-11-06T08:33:24.276Z,8.50
2022-11-06T08:38:26.108Z,8.50
2022-11-06T08:43:27.960Z,8.70
2022-11-06T08:48:29.880Z,8.60
2022-11-06T08:53:31.808Z,8.70
2022-11-06T08:58:33.716Z,8.80
2022-11-06T09:03:35.754Z,8.70
2022-11-06T09:08:37.610Z,8.60
2022-11-06T09:13:39.475Z,8.50
2022-11-06T09:18:41.333Z,8.40
2022-11-06T09:23:44.531Z,8.40
2022-11-06T09:28:46.790Z,8.40
2022-11-06T09:33:48.649Z,8.40
2022-11-06T09:38:50.494Z,8.80
2022-11-06T09:44:30.633Z,8.90
2022-11-06T09:49:48.748Z,9.00
2022-11-06T09:55:10.031Z,9.40
2022-11-06T10:00:17.077Z,10.00
2022-11-06T10:05:28.349Z,10.50
2022-11-06T10:11:02.548Z,10.50
2022-11-06T10:16:25.604Z,10.00
2022-11-06T10:21:49.028Z,10.30
2022-11-06T10:26:56.930Z,9.80
2022-11-06T10:32:23.482Z,9.90
2022-11-06T10:37:31.244Z,10.00
2022-11-06T10:42:38.458Z,10.20
2022-11-06T10:47:54.686Z,9.70
2022-11-06T10:53:05.938Z,9.70
2022-11-06T10:58:21.210Z,9.40
2022-11-06T11:03:34.090Z,9.90
2022-11-06T11:08:40.668Z,9.60
2022-11-06T11:14:02.438Z,9.30
2022-11-06T11:19:24.254Z,9.00
2022-11-06T11:24:27.190Z,8.80
2022-11-06T11:29:33.760Z,9.00
2022-11-06T11:34:48.278Z,9.30
2022-11-06T11:39:52.215Z,9.30
2022-11-06T11:45:09.364Z,9.20
2022-11-06T11:50:33.315Z,9.50
2022-11-06T11:55:39.961Z,9.90
2022-11-06T12:00:51.395Z,10.30
2022-11-06T12:05:54.838Z,9.60
2022-11-06T12:11:03.948Z,9.30
2022-11-06T12:16:14.018Z,9.20
2022-11-06T12:21:15.804Z,9.60
2022-11-06T12:26:43.363Z,10.20
2022-11-06T12:32:23.905Z,10.20
2022-11-06T12:37:37.582Z,9.70
2022-11-06T12:42:43.863Z,9.40
2022-11-06T12:48:06.655Z,9.20
2022-11-06T12:53:24.353Z,9.20
2022-11-06T12:58:40.583Z,9.20
2022-11-06T13:04:17.903Z,9.00
2022-11-06T13:09:30.859Z,9.20
2022-11-06T13:14:39.846Z,9.20
2022-11-06T13:19:56.700Z,9.10
2022-11-06T13:25:20.823Z,9.00
2022-11-06T13:30:26.516Z,8.80
2022-11-06T13:35:28.962Z,8.70
2022-11-06T13:40:37.220Z,8.60
2022-11-06T13:46:12.938Z,8.50
2022-11-06T13:51:37.303Z,8.40
2022-11-06T13:57:06.935Z,8.40
2022-11-06T14:02:42.044Z,8.40
2022-11-06T14:07:44.942Z,8.30
2022-11-06T14:12:49.138Z,8.30
2022-11-06T14:17:59.486Z,8.30
2022-11-06T14:23:29.492Z,8.40
2022-11-06T14:28:36.850Z,8.20
2022-11-06T14:33:44.398Z,8.20
2022-11-06T14:38:46.433Z,8.10
2022-11-06T14:43:51.935Z,8.10
2022-11-06T14:49:05.318Z,8.00
2022-11-06T14:54:19.701Z,8.10
2022-11-06T14:59:40.549Z,7.90
2022-11-06T15:04:47.987Z,7.90
2022-11-06T15:09:49.875Z,7.80
2022-11-06T15:14:53.553Z,7.70
2022-11-06T15:20:05.255Z,7.40
2022-11-06T15:25:16.207Z,7.20
2022-11-06T15:30:19.913Z,6.90
2022-11-06T15:35:28.567Z,6.80
2022-11-06T15:40:32.187Z,6.60
2022-11-06T15:45:34.034Z,6.40
2022-11-06T15:50:37.398Z,6.40
2022-11-06T15:56:03.071Z,6.40
2022-11-06T16:01:07.873Z,6.30
2022-11-06T16:06:10.526Z,6.40
2022-11-06T16:11:16.110Z,6.40
2022-11-06T16:16:40.816Z,6.40
2022-11-06T16:21:52.031Z,6.70
2022-11-06T16:26:54.033Z,6.70
2022-11-06T16:32:19.384Z,6.90
2022-11-06T16:37:29.994Z,7.00
2022-11-06T16:42:35.215Z,7.00
2022-11-06T16:47:37.110Z,7.10
2022-11-06T16:52:40.218Z,7.10
2022-11-06T16:57:55.911Z,7.00
2022-11-06T17:03:04.618Z,7.00
2022-11-06T17:08:18.664Z,7.10
2022-11-06T17:13:27.773Z,7.20
2022-11-06T17:18:35.332Z,7.20
2022-11-06T17:23:37.154Z,7.20
2022-11-06T17:28:38.974Z,7.30
2022-11-06T17:33:42.504Z,7.50
2022-11-06T17:38:44.759Z,7.70
2022-11-06T17:43:46.576Z,7.60
2022-11-06T17:48:48.414Z,7.70
2022-11-06T17:53:50.273Z,7.80
2022-11-06T17:58:52.767Z,7.80
2022-11-06T18:03:54.614Z,7.80
2022-11-06T18:08:57.704Z,7.80
2022-11-06T18:13:59.907Z,7.90
2022-11-06T18:19:01.886Z,7.90
2022-11-06T18:24:04.272Z,7.90
2022-11-06T18:29:07.351Z,7.80
2022-11-06T18:34:19.740Z,7.90
2022-11-06T18:39:22.228Z,7.80
2022-11-06T18:44:24.060Z,7.80
2022-11-06T18:49:25.980Z,7.90
2022-11-06T18:54:29.702Z,7.90
2022-11-06T18:59:31.731Z,7.80
2022-11-06T19:04:34.023Z,7.80
2022-11-06T19:09:35.947Z,7.70
2022-11-06T19:14:37.765Z,7.70
2022-11-06T19:19:39.608Z,7.70
2022-11-06T19:24:41.639Z,7.70
2022-11-06T19:29:43.554Z,7.70
2022-11-06T19:34:45.404Z,7.70
2022-11-06T19:39:47.276Z,7.70
2022-11-06T19:44:49.145Z,7.60
2022-11-06T19:49:51.003Z,7.50
2022-11-06T19:55:26.119Z,7.40
2022-11-06T20:00:15.234Z,7.40
2022-11-06T20:05:17.205Z,7.40
2022-11-06T20:10:19.153Z,7.30
2022-11-06T20:15:23.956Z,7.30
2022-11-06T20:20:34.738Z,7.10
2022-11-06T20:25:37.954Z,6.90
2022-11-06T20:30:39.777Z,6.70
2022-11-06T20:35:41.844Z,6.80
2022-11-06T20:40:43.676Z,7.00
2022-11-06T20:45:45.494Z,7.10
2022-11-06T20:50:58.118Z,7.10
2022-11-06T20:56:02.339Z,7.10
2022-11-06T21:01:10.440Z,7.00
2022-11-06T21:06:12.978Z,7.10
2022-11-06T21:11:26.308Z,7.00
2022-11-06T21:16:31.201Z,6.90
2022-11-06T21:21:34.888Z,6.90
2022-11-06T21:26:38.150Z,6.70
2022-11-06T21:31:45.684Z,6.70
2022-11-06T21:36:50.639Z,6.80
2022-11-06T21:41:52.429Z,6.90
2022-11-06T21:46:54.260Z,6.90
2022-11-06T21:52:16.111Z,7.10
2022-11-06T21:57:17.946Z,7.20
2022-11-06T22:02:19.831Z,7.20
2022-11-06T22:07:21.750Z,7.30
2022-11-06T22:12:23.966Z,7.30
2022-11-06T22:17:25.797Z,7.30
2022-11-06T22:22:27.734Z,7.40
2022-11-06T22:27:29.625Z,7.40
2022-11-06T22:32:31.458Z,7.40
2022-11-06T22:37:33.330Z,7.40
2022-11-06T22:42:35.157Z,7.40
2022-11-06T22:47:37.051Z,7.40
2022-11-06T22:52:38.838Z,7.40
2022-11-06T22:57:40.643Z,7.30
2022-11-06T23:02:42.531Z,7.30
2022-11-06T23:07:44.457Z,7.20
2022-11-06T23:12:46.262Z,7.20
2022-11-06T23:17:48.810Z,7.20
2022-11-06T23:22:51.398Z,7.20
2022-11-06T23:27:53.614Z,7.20
2022-11-06T23:32:55.600Z,7.30
2022-11-06T23:37:57.433Z,7.30
2022-11-06T23:42:59.213Z,7.30
2022-11-06T23:48:05.905Z,7.30
2022-11-06T23:53:10.203Z,7.30
2022-11-06T23:58:12.040Z,7.40
